Time;durP1;ratioP1;P1;durP2;ratioP2;P2;SDS_P1;SDS_P2;PMS_P1;PMS_P2;Temp;Humidity;BMP_temperature;BMP_pressure;BME280_temperature;BME280_humidity;BME280_pressure;Samples;Min_cycle;Max_cycle;Signal;HPM_P1;HPM_P2
2022/07/09 00:00:46;;;;;;;;;5.00;5.00;;;;;22.72;52.68;101445.26;110268;1265;22034;-62
2022/07/09 00:03:13;;;;;;;;;3.00;3.00;;;;;22.73;52.70;101444.29;110254;1264;18691;-62
2022/07/09 00:05:42;;;;;;;;;3.00;3.00;;;;;22.70;52.80;101444.16;110254;1265;19558;-62
2022/07/09 00:08:09;;;;;;;;;3.67;3.00;;;;;22.62;52.92;101442.52;110247;1264;18641;-63
2022/07/09 00:10:36;;;;;;;;;3.00;3.00;;;;;22.67;52.89;101444.95;110215;1264;18695;-61
2022/07/09 00:13:03;;;;;;;;;2.00;2.00;;;;;22.73;52.74;101441.48;110287;1264;19543;-63
2022/07/09 00:15:31;;;;;;;;;3.00;3.00;;;;;22.60;53.06;101432.00;110198;1265;18764;-60
2022/07/09 00:17:58;;;;;;;;;3.00;3.00;;;;;22.61;52.95;101439.89;110262;1264;18882;-62
2022/07/09 00:20:25;;;;;;;;;5.00;4.33;;;;;22.74;52.71;101442.71;110223;1264;19552;-60
2022/07/09 00:22:52;;;;;;;;;2.00;2.00;;;;;22.83;52.36;101445.27;110261;1264;18538;-61
2022/07/09 00:25:20;;;;;;;;;3.00;3.00;;;;;22.91;52.09;101448.27;110235;1265;18708;-61
2022/07/09 00:27:47;;;;;;;;;3.00;3.00;;;;;22.96;51.84;101440.59;110302;1264;19569;-61
2022/07/09 00:30:14;;;;;;;;;3.00;3.00;;;;;22.97;51.84;101435.83;110225;1264;18577;-62
2022/07/09 00:32:41;;;;;;;;;3.00;2.67;;;;;22.98;51.70;101438.52;110233;1264;22792;-61
2022/07/09 00:35:09;;;;;;;;;3.00;3.00;;;;;22.99;51.70;101441.48;110235;1264;19913;-61
2022/07/09 00:37:36;;;;;;;;;3.00;3.00;;;;;22.98;51.63;101441.19;110262;1264;18417;-61
2022/07/09 00:40:03;;;;;;;;;14.00;12.00;;;;;23.00;51.65;101443.16;110266;1264;18810;-60
2022/07/09 00:42:31;;;;;;;;;10.00;9.67;;;;;23.00;51.54;101439.07;110217;1264;19471;-63
2022/07/09 00:44:58;;;;;;;;;10.00;7.00;;;;;23.00;51.49;101434.96;110227;1264;18969;-61
2022/07/09 00:47:26;;;;;;;;;14.50;13.00;;;;;23.01;51.63;101438.35;110213;1264;20058;-61
2022/07/09 00:49:53;;;;;;;;;9.33;8.00;;;;;23.00;51.65;101429.52;110229;1265;19651;-63
2022/07/09 00:52:20;;;;;;;;;12.00;11.00;;;;;23.00;51.55;101431.17;110248;1264;19521;-60
2022/07/09 00:54:48;;;;;;;;;7.33;7.33;;;;;23.01;51.50;101436.52;110279;1264;18745;-60
2022/07/09 00:57:15;;;;;;;;;7.33;6.00;;;;;22.99;51.59;101433.42;110146;1265;19503;-61
2022/07/09 00:59:42;;;;;;;;;10.33;9.00;;;;;22.97;51.81;101434.09;110215;1264;18404;-63
2022/07/09 01:02:09;;;;;;;;;7.50;7.00;;;;;22.97;51.86;101431.83;110161;1264;18932;-61
2022/07/09 01:04:39;;;;;;;;;6.00;6.00;;;;;22.97;51.97;101429.38;110214;1264;19740;-61
2022/07/09 01:07:06;;;;;;;;;7.00;7.00;;;;;22.93;51.90;101425.55;110241;1264;19252;-60
2022/07/09 01:09:34;;;;;;;;;6.00;6.00;;;;;22.92;51.99;101425.35;110193;1264;18692;-62
2022/07/09 01:12:01;;;;;;;;;5.67;5.33;;;;;22.92;52.18;101423.52;110234;1264;20938;-61
2022/07/09 01:14:28;;;;;;;;;5.67;5.67;;;;;22.93;52.01;101423.52;110263;1264;18456;-59
2022/07/09 01:16:55;;;;;;;;;5.00;3.67;;;;;22.93;51.99;101423.40;110295;1264;21107;-59
2022/07/09 01:19:23;;;;;;;;;7.00;6.00;;;;;22.90;52.30;101424.40;110276;1265;21290;-58
2022/07/09 01:21:50;;;;;;;;;6.33;5.33;;;;;22.90;52.21;101417.88;110311;1265;22011;-63
2022/07/09 01:24:17;;;;;;;;;3.00;3.00;;;;;22.92;52.23;101410.55;110211;1265;18948;-62
2022/07/09 01:26:44;;;;;;;;;5.00;5.00;;;;;22.93;52.31;101407.74;110250;1264;19570;-61
2022/07/09 01:29:12;;;;;;;;;6.00;5.00;;;;;22.93;52.32;101401.86;110258;1265;18688;-60
2022/07/09 01:31:39;;;;;;;;;6.33;6.00;;;;;22.91;52.34;101405.23;110216;1264;19188;-61
2022/07/09 01:34:07;;;;;;;;;10.00;8.00;;;;;22.90;52.30;101403.66;110315;1264;19487;-60
2022/07/09 01:36:34;;;;;;;;;8.00;8.00;;;;;22.86;52.38;101400.98;110271;1264;18871;-62
2022/07/09 01:39:01;;;;;;;;;10.33;10.00;;;;;22.87;52.46;101396.75;110288;1264;19683;-61
2022/07/09 01:41:30;;;;;;;;;7.00;6.00;;;;;22.85;52.68;101390.05;110281;1264;19992;-62
2022/07/09 01:43:57;;;;;;;;;10.33;7.00;;;;;22.84;52.60;101384.15;110301;1264;18709;-61
2022/07/09 01:46:25;;;;;;;;;6.00;6.00;;;;;22.84;52.57;101388.52;110313;1264;18853;-62
2022/07/09 01:48:52;;;;;;;;;9.00;7.00;;;;;22.83;52.59;101382.58;110318;1264;19504;-63
2022/07/09 01:51:21;;;;;;;;;7.67;7.67;;;;;22.84;52.67;101382.63;110301;1265;18504;-62
2022/07/09 01:53:48;;;;;;;;;6.00;6.00;;;;;22.84;52.74;101381.91;110240;1265;18821;-63
2022/07/09 01:56:16;;;;;;;;;7.50;7.50;;;;;22.84;52.73;101380.31;110298;1264;19487;-64
2022/07/09 01:58:44;;;;;;;;;8.00;8.00;;;;;22.83;52.66;101384.83;110308;1264;18659;-61
2022/07/09 02:01:11;;;;;;;;;8.50;7.00;;;;;22.81;52.85;101383.02;110401;1264;22220;-60
2022/07/09 02:03:39;;;;;;;;;7.00;7.00;;;;;22.80;52.93;101381.89;110261;1264;19576;-61
2022/07/09 02:06:07;;;;;;;;;9.00;9.00;;;;;22.77;52.81;101375.66;110278;1264;18487;-62
2022/07/09 02:08:34;;;;;;;;;9.00;9.00;;;;;22.77;52.76;101376.36;110287;1264;22408;-62
2022/07/09 02:11:01;;;;;;;;;10.00;9.33;;;;;22.75;53.00;101373.36;110298;1265;19895;-59
2022/07/09 02:13:28;;;;;;;;;11.33;10.00;;;;;22.72;53.02;101375.27;110299;1264;19006;-61
2022/07/09 02:15:56;;;;;;;;;9.00;9.00;;;;;22.69;53.17;101374.16;110337;1265;22251;-63
2022/07/09 02:18:23;;;;;;;;;11.00;10.00;;;;;22.66;53.25;101372.99;110282;1264;19865;-61
2022/07/09 02:20:50;;;;;;;;;10.33;9.67;;;;;22.65;53.12;101368.23;110300;1264;18512;-61
2022/07/09 02:23:17;;;;;;;;;10.00;9.00;;;;;22.65;53.24;101364.20;110254;1264;18937;-63
2022/07/09 02:25:45;;;;;;;;;12.33;10.00;;;;;22.62;53.32;101361.64;110289;1264;19481;-61
2022/07/09 02:28:12;;;;;;;;;10.00;10.00;;;;;22.64;53.55;101355.83;110313;1263;18847;-62
2022/07/09 02:30:39;;;;;;;;;12.00;11.33;;;;;22.63;53.78;101352.59;110285;1264;18779;-63
2022/07/09 02:33:06;;;;;;;;;11.67;10.67;;;;;22.63;54.05;101350.09;110266;1265;22179;-61
2022/07/09 02:35:34;;;;;;;;;12.00;10.00;;;;;22.62;54.08;101348.39;110262;1264;18871;-63
2022/07/09 02:38:01;;;;;;;;;10.33;10.00;;;;;22.62;54.33;101344.36;110275;1264;18781;-60
2022/07/09 02:40:28;;;;;;;;;8.00;8.00;;;;;22.65;54.37;101340.77;110295;1264;19617;-59
2022/07/09 02:42:55;;;;;;;;;10.67;10.67;;;;;22.71;54.33;101344.33;110304;1265;20240;-62
2022/07/09 02:45:23;;;;;;;;;11.33;10.67;;;;;22.74;54.35;101339.06;110249;1264;22322;-62
2022/07/09 02:47:50;;;;;;;;;9.00;9.00;;;;;22.73;54.58;101332.52;110303;1264;19788;-62
2022/07/09 02:50:17;;;;;;;;;11.67;11.00;;;;;22.73;54.51;101329.81;110291;1264;18814;-61
2022/07/09 02:53:09;;;;;;;;;11.00;10.33;;;;;22.74;54.59;101330.80;110228;1265;22666;-63
2022/07/09 02:56:00;;;;;;;;;10.67;10.67;;;;;22.76;54.37;101336.35;110123;1264;19506;-61
2022/07/09 02:58:52;;;;;;;;;18.00;15.00;;;;;22.77;54.58;101331.75;110164;1265;22963;-62
2022/07/09 03:01:44;;;;;;;;;16.00;14.67;;;;;22.73;54.70;101329.64;110209;1264;19311;-60
2022/07/09 03:04:35;;;;;;;;;12.00;11.33;;;;;22.72;54.79;101326.71;110235;1265;19515;-60
2022/07/09 03:07:26;;;;;;;;;14.33;11.67;;;;;22.73;54.73;101328.01;110243;1265;18822;-60
2022/07/09 03:10:17;;;;;;;;;12.33;12.00;;;;;22.73;54.66;101325.30;110227;1264;18947;-61
2022/07/09 03:13:08;;;;;;;;;13.50;13.50;;;;;22.42;55.42;101331.36;110276;1264;24252;-63
2022/07/09 03:15:59;;;;;;;;;13.00;11.00;;;;;22.15;56.16;101336.98;110254;1264;18861;-61
2022/07/09 03:18:50;;;;;;;;;14.67;14.33;;;;;21.96;56.75;101334.80;110230;1265;18841;-61
2022/07/09 03:21:41;;;;;;;;;18.67;17.67;;;;;21.86;57.27;101336.72;110167;1265;20464;-59
2022/07/09 03:24:32;;;;;;;;;17.67;16.33;;;;;21.88;57.23;101335.77;110209;1264;19732;-59
2022/07/09 03:27:24;;;;;;;;;15.00;14.00;;;;;21.75;57.31;101338.84;110139;1265;19205;-58
2022/07/09 03:30:16;;;;;;;;;15.33;15.00;;;;;21.62;57.78;101341.37;110155;1264;19501;-59
2022/07/09 03:33:08;;;;;;;;;13.00;11.00;;;;;21.68;57.68;101338.71;110142;1264;19017;-62
2022/07/09 03:35:35;;;;;;;;;15.00;14.00;;;;;21.80;57.43;101343.06;110200;1264;18788;-55
2022/07/09 03:38:02;;;;;;;;;17.67;15.00;;;;;21.72;57.37;101334.83;110222;1264;22060;-60
2022/07/09 03:40:30;;;;;;;;;11.00;11.00;;;;;21.67;57.51;101339.46;110249;1264;18646;-59
2022/07/09 03:42:58;;;;;;;;;10.00;10.00;;;;;21.58;57.92;101335.59;110243;1265;18765;-60
2022/07/09 03:45:25;;;;;;;;;9.33;9.00;;;;;21.63;57.83;101331.04;110215;1264;19637;-60
2022/07/09 03:47:52;;;;;;;;;10.00;9.67;;;;;21.69;57.74;101330.94;110218;1264;20019;-61
2022/07/09 03:50:20;;;;;;;;;10.67;9.00;;;;;21.85;57.33;101326.25;110206;1264;19066;-61
2022/07/09 03:52:47;;;;;;;;;10.00;9.33;;;;;21.92;56.91;101326.36;110213;1264;19611;-61
2022/07/09 03:55:14;;;;;;;;;9.00;9.00;;;;;21.70;57.42;101321.91;110272;1264;20161;-62
2022/07/09 03:57:42;;;;;;;;;10.00;9.00;;;;;21.64;57.67;101324.05;110172;1264;22499;-61
2022/07/09 04:00:09;;;;;;;;;10.33;9.00;;;;;21.61;57.77;101322.40;110186;1265;19574;-60
2022/07/09 04:02:36;;;;;;;;;10.00;9.00;;;;;21.65;57.51;101317.36;110141;1264;18874;-61
2022/07/09 04:05:04;;;;;;;;;8.00;8.00;;;;;21.60;57.69;101318.62;110211;1265;18860;-62
2022/07/09 04:07:31;;;;;;;;;9.33;8.33;;;;;21.54;57.96;101317.29;110167;1265;22012;-60
2022/07/09 04:09:58;;;;;;;;;7.00;6.33;;;;;21.58;57.59;101318.00;110243;1264;18446;-62
2022/07/09 04:12:25;;;;;;;;;9.00;7.00;;;;;21.67;57.67;101311.29;110171;1264;18943;-62
2022/07/09 04:15:17;;;;;;;;;9.00;9.00;;;;;21.87;56.93;101312.73;110116;1264;19613;-60
2022/07/09 04:18:08;;;;;;;;;7.33;6.00;;;;;21.89;56.93;101317.92;110137;1264;18873;-61
2022/07/09 04:20:59;;;;;;;;;9.00;9.00;;;;;21.81;56.90;101313.42;110134;1265;21050;-60
2022/07/09 04:23:50;;;;;;;;;9.33;6.00;;;;;21.91;56.92;101313.09;110120;1265;19609;-61
2022/07/09 04:26:41;;;;;;;;;10.00;7.00;;;;;22.05;56.26;101312.19;110137;1264;18464;-61
2022/07/09 04:29:32;;;;;;;;;11.00;11.00;;;;;22.08;56.15;101312.26;110118;1265;19252;-60
2022/07/09 04:32:24;;;;;;;;;9.00;9.00;;;;;21.96;56.21;101307.72;110128;1264;19620;-61
2022/07/09 04:35:16;;;;;;;;;10.67;9.33;;;;;21.93;56.57;101301.55;110135;1265;18774;-61
2022/07/09 04:38:08;;;;;;;;;7.00;7.00;;;;;21.89;56.55;101303.05;110127;1265;18912;-62
2022/07/09 04:41:00;;;;;;;;;10.33;10.00;;;;;21.98;56.41;101296.52;110092;1265;22183;-61
2022/07/09 04:43:52;;;;;;;;;11.00;9.67;;;;;22.15;55.93;101291.80;110118;1265;18639;-58
2022/07/09 04:46:43;;;;;;;;;10.00;10.00;;;;;22.21;55.77;101286.99;110093;1264;23275;-60
2022/07/09 04:49:35;;;;;;;;;10.00;9.00;;;;;22.31;55.56;101288.54;110204;1264;19520;-61
2022/07/09 04:52:28;;;;;;;;;8.67;7.33;;;;;22.40;55.14;101285.64;110255;1264;18854;-59
2022/07/09 04:55:21;;;;;;;;;7.00;7.00;;;;;22.36;55.43;101290.38;110159;1265;22242;-60
2022/07/09 04:58:13;;;;;;;;;11.00;10.00;;;;;22.27;55.57;101286.50;110248;1264;19680;-60
2022/07/09 05:01:05;;;;;;;;;10.00;9.33;;;;;22.24;56.08;101285.38;110201;1264;18485;-60
2022/07/09 05:03:56;;;;;;;;;10.67;10.00;;;;;22.33;55.96;101283.55;110242;1265;18906;-57
2022/07/09 05:06:48;;;;;;;;;11.00;10.00;;;;;22.25;55.82;101283.91;110194;1264;19645;-58
2022/07/09 05:09:40;;;;;;;;;17.00;14.00;;;;;22.31;55.72;101285.46;110137;1264;18803;-59
2022/07/09 05:12:31;;;;;;;;;11.00;11.00;;;;;22.24;55.61;101286.64;110162;1264;18943;-61
2022/07/09 05:15:22;;;;;;;;;17.00;14.00;;;;;22.28;55.66;101291.27;110164;1264;23088;-61
2022/07/09 05:18:14;;;;;;;;;14.33;14.33;;;;;22.25;55.46;101290.70;110088;1265;18942;-59
2022/07/09 05:21:06;;;;;;;;;15.00;14.00;;;;;22.20;55.59;101289.65;110178;1264;21855;-56
2022/07/09 05:23:59;;;;;;;;;15.33;14.33;;;;;22.30;55.25;101282.63;110162;1265;19575;-62
2022/07/09 05:26:51;;;;;;;;;15.00;14.00;;;;;22.45;55.03;101281.84;109986;1265;18774;-59
2022/07/09 05:29:43;;;;;;;;;13.33;13.33;;;;;22.65;54.62;101278.04;110109;1265;18963;-63
2022/07/09 05:32:10;;;;;;;;;13.67;13.00;;;;;22.77;54.19;101275.95;110249;1264;20499;-60
2022/07/09 05:34:37;;;;;;;;;15.00;13.33;;;;;22.83;53.96;101272.31;110155;1264;20306;-62
2022/07/09 05:37:04;;;;;;;;;11.00;11.00;;;;;22.93;53.90;101276.33;110225;1264;18927;-60
2022/07/09 05:39:32;;;;;;;;;13.33;12.00;;;;;23.01;53.87;101270.06;110190;1264;19595;-62
2022/07/09 05:41:59;;;;;;;;;15.00;15.00;;;;;23.08;53.97;101266.30;110223;1264;19027;-62
2022/07/09 05:44:26;;;;;;;;;14.67;11.67;;;;;23.12;54.03;101262.99;110219;1264;19114;-60
2022/07/09 05:46:54;;;;;;;;;15.00;12.00;;;;;23.15;53.70;101259.52;110112;1265;19594;-61
2022/07/09 05:49:21;;;;;;;;;16.00;14.00;;;;;23.18;53.58;101260.42;110058;1264;18883;-61
2022/07/09 05:51:48;;;;;;;;;12.67;12.67;;;;;23.21;53.40;101263.81;110207;1264;18817;-63
2022/07/09 05:54:15;;;;;;;;;13.00;11.50;;;;;23.21;53.29;101264.27;110215;1265;19586;-61
2022/07/09 05:56:43;;;;;;;;;16.00;13.00;;;;;23.21;53.13;101265.45;110170;1264;18712;-61
2022/07/09 05:59:10;;;;;;;;;15.00;15.00;;;;;23.20;53.04;101263.34;110237;1264;21175;-65
2022/07/09 06:01:39;;;;;;;;;13.33;12.00;;;;;23.22;52.96;101258.73;110141;1264;20665;-62
2022/07/09 06:04:07;;;;;;;;;11.00;11.00;;;;;23.24;52.65;101258.30;110221;1265;19631;-61
2022/07/09 06:06:35;;;;;;;;;16.33;15.33;;;;;23.26;52.77;101260.98;110232;1264;18929;-62
2022/07/09 06:09:02;;;;;;;;;14.33;12.00;;;;;23.26;52.73;101258.02;110172;1264;19527;-63
2022/07/09 06:11:29;;;;;;;;;14.00;12.00;;;;;23.29;52.47;101257.31;110237;1264;18856;-57
2022/07/09 06:13:56;;;;;;;;;17.00;12.00;;;;;23.30;52.58;101255.22;110098;1265;18911;-62
2022/07/09 06:16:24;;;;;;;;;12.00;11.33;;;;;23.33;52.39;101258.15;110039;1265;21110;-59
2022/07/09 06:18:51;;;;;;;;;14.67;14.67;;;;;23.40;52.30;101260.17;110156;1265;19031;-61
2022/07/09 06:21:19;;;;;;;;;14.00;12.00;;;;;23.42;52.60;101259.66;110208;1264;18850;-59
2022/07/09 06:23:46;;;;;;;;;12.00;12.00;;;;;23.47;52.59;101262.67;110239;1264;20986;-61
2022/07/09 06:26:13;;;;;;;;;14.33;14.00;;;;;23.51;52.58;101261.34;110205;1265;18748;-59
2022/07/09 06:28:40;;;;;;;;;13.33;11.33;;;;;23.55;52.56;101263.78;110186;1265;21575;-55
2022/07/09 06:31:08;;;;;;;;;12.00;11.00;;;;;23.55;52.51;101260.55;110131;1265;19599;-63
2022/07/09 06:33:35;;;;;;;;;12.00;11.00;;;;;23.61;52.51;101263.21;110094;1264;22301;-65
2022/07/09 06:36:02;;;;;;;;;14.00;13.33;;;;;23.61;52.53;101268.69;110199;1264;18757;-66
2022/07/09 06:38:30;;;;;;;;;12.00;12.00;;;;;23.63;52.60;101269.72;110223;1264;22080;-65
2022/07/09 06:40:58;;;;;;;;;11.67;10.00;;;;;23.62;52.57;101270.58;110154;1264;18741;-65
2022/07/09 06:43:25;;;;;;;;;14.00;13.33;;;;;23.62;52.61;101271.23;110224;1264;19008;-65
2022/07/09 06:45:53;;;;;;;;;14.00;12.00;;;;;23.64;52.36;101268.34;110181;1264;19505;-65
2022/07/09 06:48:20;;;;;;;;;12.00;12.00;;;;;23.65;52.31;101271.07;110206;1265;18829;-64
2022/07/09 06:50:47;;;;;;;;;14.00;12.00;;;;;23.69;53.06;101268.75;110210;1264;18960;-65
2022/07/09 06:53:15;;;;;;;;;12.00;11.33;;;;;23.74;53.69;101272.82;110214;1265;19682;-65
2022/07/09 06:55:43;;;;;;;;;13.33;11.00;;;;;23.76;53.20;101276.18;110253;1264;18808;-65
2022/07/09 06:58:10;;;;;;;;;12.50;11.00;;;;;23.78;53.16;101271.38;110220;1265;18930;-65
2022/07/09 07:00:38;;;;;;;;;10.00;10.00;;;;;23.80;53.00;101272.30;110198;1264;19479;-64
2022/07/09 07:03:05;;;;;;;;;15.33;12.67;;;;;23.80;52.75;101272.59;110210;1265;18672;-64
2022/07/09 07:05:32;;;;;;;;;12.00;11.00;;;;;23.81;52.47;101273.78;110175;1265;18868;-62
2022/07/09 07:08:00;;;;;;;;;11.00;10.33;;;;;23.79;52.25;101273.37;110201;1265;22086;-63
2022/07/09 07:10:27;;;;;;;;;14.00;11.00;;;;;23.76;52.18;101268.73;110286;1265;18909;-64
2022/07/09 07:12:55;;;;;;;;;12.67;12.33;;;;;23.74;51.99;101263.69;110186;1264;18994;-64
2022/07/09 07:15:22;;;;;;;;;12.00;12.00;;;;;23.78;52.06;101259.38;110229;1265;19475;-65
2022/07/09 07:17:49;;;;;;;;;12.50;12.00;;;;;23.88;52.52;101256.52;110189;1265;22778;-64
2022/07/09 07:20:19;;;;;;;;;13.67;12.33;;;;;23.95;52.73;101257.85;110240;1264;21635;-65
2022/07/09 07:22:46;;;;;;;;;12.00;12.00;;;;;24.02;52.67;101252.65;110109;1264;19686;-64
2022/07/09 07:25:14;;;;;;;;;8.00;8.00;;;;;24.03;52.30;101253.02;109977;1265;18727;-64
2022/07/09 07:27:41;;;;;;;;;12.00;11.00;;;;;24.05;52.00;101248.98;110225;1264;18997;-63
2022/07/09 07:30:08;;;;;;;;;11.00;10.33;;;;;24.09;51.75;101245.60;110162;1264;19707;-63
2022/07/09 07:32:35;;;;;;;;;9.67;9.67;;;;;24.05;51.61;101245.90;110262;1264;18796;-63
2022/07/09 07:35:03;;;;;;;;;11.50;10.00;;;;;23.99;51.35;101244.60;110197;1264;18696;-62
2022/07/09 07:37:31;;;;;;;;;14.00;11.00;;;;;23.95;51.28;101244.15;110169;1267;20572;-63
2022/07/09 07:39:58;;;;;;;;;12.00;10.00;;;;;23.93;51.10;101238.05;109730;1264;624454;-62
2022/07/09 07:42:25;;;;;;;;;11.67;11.00;;;;;23.92;51.07;101240.27;110144;1264;18878;-63
2022/07/09 07:44:53;;;;;;;;;12.00;12.00;;;;;23.97;50.92;101242.29;110201;1265;23698;-63
2022/07/09 07:47:20;;;;;;;;;14.00;12.33;;;;;24.00;50.83;101239.00;110005;1264;19016;-62
2022/07/09 07:49:47;;;;;;;;;11.00;11.00;;;;;23.95;50.42;101234.46;110189;1265;23291;-60
2022/07/09 07:52:15;;;;;;;;;10.00;10.00;;;;;23.64;50.61;101238.56;110239;1264;19541;-63
2022/07/09 07:54:42;;;;;;;;;11.00;11.00;;;;;23.29;51.16;101240.02;110187;1264;18758;-65
2022/07/09 07:57:09;;;;;;;;;10.50;10.00;;;;;23.16;51.73;101240.91;110244;1264;19643;-65
2022/07/09 07:59:36;;;;;;;;;10.33;10.00;;;;;23.32;51.57;101241.88;110223;1265;21581;-64
2022/07/09 08:02:04;;;;;;;;;12.00;11.00;;;;;23.31;51.36;101238.12;110287;1265;20191;-64
2022/07/09 08:04:31;;;;;;;;;11.00;11.00;;;;;23.22;51.63;101243.90;110176;1266;24022;-66
2022/07/09 08:06:58;;;;;;;;;14.00;14.00;;;;;23.22;51.18;101246.90;110226;1264;19531;-63
2022/07/09 08:09:25;;;;;;;;;10.50;10.50;;;;;23.20;51.26;101246.75;110211;1265;18800;-64
2022/07/09 08:11:53;;;;;;;;;10.67;10.00;;;;;23.16;51.10;101246.61;110158;1265;20067;-65
2022/07/09 08:14:20;;;;;;;;;10.00;8.00;;;;;23.14;51.14;101249.79;110187;1265;19534;-64
2022/07/09 08:16:47;;;;;;;;;10.00;9.00;;;;;23.23;50.60;101246.80;110197;1264;18832;-66
2022/07/09 08:19:15;;;;;;;;;8.67;7.67;;;;;23.25;50.16;101246.01;110124;1265;18843;-64
2022/07/09 08:21:43;;;;;;;;;10.00;10.00;;;;;23.27;49.93;101240.28;110160;1265;19532;-63
2022/07/09 08:24:10;;;;;;;;;10.00;10.00;;;;;23.15;50.07;101245.45;110134;1265;22223;-62
2022/07/09 08:26:37;;;;;;;;;10.33;9.67;;;;;23.08;49.62;101245.80;110214;1265;22400;-63
2022/07/09 08:29:05;;;;;;;;;8.00;8.00;;;;;23.00;49.59;101248.30;110160;1265;19643;-64
2022/07/09 08:31:32;;;;;;;;;7.00;7.00;;;;;23.05;49.43;101244.61;110276;1264;22714;-63
2022/07/09 08:33:59;;;;;;;;;8.00;7.00;;;;;23.07;49.50;101249.22;110213;1264;18889;-63
2022/07/09 08:36:26;;;;;;;;;11.33;10.67;;;;;23.00;49.27;101242.84;110203;1265;20261;-64
2022/07/09 08:38:54;;;;;;;;;14.00;12.00;;;;;23.03;48.98;101238.34;110252;1265;22253;-64
2022/07/09 08:41:21;;;;;;;;;10.67;10.00;;;;;23.09;49.06;101230.93;110202;1265;18805;-64
2022/07/09 08:43:48;;;;;;;;;11.00;11.00;;;;;23.15;49.13;101237.27;110286;1264;19667;-65
2022/07/09 08:46:15;;;;;;;;;9.67;8.33;;;;;23.12;49.08;101229.98;110244;1265;18805;-64
2022/07/09 08:48:43;;;;;;;;;11.00;10.00;;;;;23.09;49.16;101232.70;110216;1265;18734;-65
2022/07/09 08:51:10;;;;;;;;;10.00;10.00;;;;;22.99;49.31;101224.23;110257;1264;19618;-64
2022/07/09 08:53:37;;;;;;;;;8.67;8.00;;;;;23.01;49.39;101218.77;110183;1265;18827;-62
2022/07/09 08:56:04;;;;;;;;;8.50;8.00;;;;;23.07;49.37;101217.88;110199;1265;19015;-64
2022/07/09 08:58:32;;;;;;;;;7.50;7.00;;;;;23.16;49.23;101218.91;110210;1266;22251;-64
2022/07/09 09:01:00;;;;;;;;;7.33;7.00;;;;;23.09;49.36;101219.61;110173;1265;20090;-62
2022/07/09 09:03:27;;;;;;;;;10.00;9.67;;;;;23.04;49.36;101219.27;110197;1265;18693;-64
2022/07/09 09:05:54;;;;;;;;;10.00;8.00;;;;;23.04;49.52;101220.95;110239;1264;19566;-62
2022/07/09 09:08:22;;;;;;;;;10.33;8.67;;;;;23.07;49.31;101210.54;110247;1264;23011;-63
2022/07/09 09:10:49;;;;;;;;;8.00;7.00;;;;;23.10;49.26;101211.05;110222;1264;18864;-64
2022/07/09 09:13:17;;;;;;;;;9.00;8.00;;;;;23.13;49.02;101210.86;110285;1265;20023;-62
2022/07/09 09:15:44;;;;;;;;;8.00;8.00;;;;;23.15;49.27;101205.30;110227;1264;20241;-63
2022/07/09 09:18:12;;;;;;;;;9.33;9.33;;;;;23.17;49.07;101209.67;110173;1265;19269;-65
2022/07/09 09:20:39;;;;;;;;;10.00;9.00;;;;;23.14;48.95;101204.50;110179;1265;19530;-64
2022/07/09 09:23:10;;;;;;;;;11.00;9.50;;;;;23.17;49.09;101204.17;110104;1265;19816;-60
2022/07/09 09:25:37;;;;;;;;;10.00;8.00;;;;;23.20;49.12;101199.89;110184;1265;18824;-63
2022/07/09 09:28:05;;;;;;;;;9.00;9.00;;;;;23.30;49.22;101198.64;110185;1265;19574;-63
2022/07/09 09:30:32;;;;;;;;;9.33;9.00;;;;;23.33;49.33;101202.35;110165;1264;18713;-63
2022/07/09 09:32:59;;;;;;;;;11.00;9.67;;;;;23.34;49.21;101194.58;110185;1264;19870;-62
2022/07/09 09:35:27;;;;;;;;;14.67;13.33;;;;;23.36;49.16;101198.83;110188;1264;19535;-65
2022/07/09 09:37:54;;;;;;;;;9.00;8.00;;;;;23.39;48.81;101197.91;110225;1265;22211;-64
2022/07/09 09:40:21;;;;;;;;;7.33;7.33;;;;;23.48;48.43;101194.20;110278;1265;18749;-64
2022/07/09 09:42:48;;;;;;;;;10.00;10.00;;;;;23.47;47.88;101195.86;110207;1265;19631;-64
2022/07/09 09:45:16;;;;;;;;;12.00;11.00;;;;;23.44;47.43;101195.14;110209;1265;18871;-64
2022/07/09 09:47:43;;;;;;;;;10.00;8.00;;;;;23.37;47.45;101198.59;110219;1265;19065;-65
2022/07/09 09:50:13;;;;;;;;;10.33;10.33;;;;;23.22;47.65;101195.77;110173;1265;19339;-64
2022/07/09 09:52:40;;;;;;;;;10.00;10.00;;;;;23.19;47.96;101194.70;110240;1264;18993;-62
2022/07/09 09:55:08;;;;;;;;;10.00;10.00;;;;;23.21;47.85;101187.54;110188;1265;21916;-62
2022/07/09 09:57:35;;;;;;;;;7.00;7.00;;;;;23.25;48.02;101184.56;110184;1265;20499;-65
2022/07/09 10:00:02;;;;;;;;;11.00;8.33;;;;;23.25;48.18;101185.66;110241;1264;18722;-65
2022/07/09 10:02:30;;;;;;;;;10.00;10.00;;;;;23.19;48.29;101179.52;110308;1265;18760;-66
2022/07/09 10:04:57;;;;;;;;;11.67;10.67;;;;;23.18;48.25;101182.23;110123;1265;19452;-65
2022/07/09 10:07:24;;;;;;;;;9.67;9.67;;;;;23.19;48.22;101178.96;110239;1264;18898;-61
2022/07/09 10:09:51;;;;;;;;;10.00;10.00;;;;;23.29;47.98;101179.89;110209;1264;22050;-65
2022/07/09 10:12:19;;;;;;;;;11.00;10.67;;;;;23.24;47.96;101182.45;110200;1265;19591;-63
2022/07/09 10:14:46;;;;;;;;;11.00;11.00;;;;;23.08;48.39;101181.45;110198;1264;18789;-65
2022/07/09 10:17:14;;;;;;;;;10.00;10.00;;;;;23.01;48.65;101182.48;110190;1264;18851;-64
2022/07/09 10:19:41;;;;;;;;;10.00;9.00;;;;;23.09;48.51;101177.42;110227;1265;21078;-64
2022/07/09 10:22:08;;;;;;;;;10.00;9.33;;;;;23.09;48.43;101175.06;110212;1265;21465;-64
2022/07/09 10:24:35;;;;;;;;;8.00;8.00;;;;;23.02;48.58;101169.00;110236;1265;18879;-64
2022/07/09 10:27:03;;;;;;;;;11.67;11.00;;;;;22.97;48.82;101165.17;110292;1264;19425;-65
2022/07/09 10:29:30;;;;;;;;;10.00;8.00;;;;;22.96;49.00;101165.54;110125;1264;18495;-65
2022/07/09 10:31:58;;;;;;;;;11.00;11.00;;;;;22.97;49.04;101168.88;110299;1264;18799;-65
2022/07/09 10:34:25;;;;;;;;;10.00;9.00;;;;;22.87;49.37;101166.54;110234;1265;19573;-65
2022/07/09 10:36:52;;;;;;;;;12.00;12.00;;;;;22.84;49.66;101167.88;110216;1264;18795;-64
2022/07/09 10:39:19;;;;;;;;;15.00;14.00;;;;;22.85;49.43;101172.69;110243;1265;18875;-65
2022/07/09 10:41:47;;;;;;;;;15.50;14.00;;;;;22.77;49.61;101166.81;110247;1264;22165;-64
2022/07/09 10:44:14;;;;;;;;;14.00;14.00;;;;;22.76;49.54;101165.82;110253;1264;18680;-64
2022/07/09 10:46:41;;;;;;;;;12.33;11.67;;;;;22.80;49.52;101166.11;110220;1265;18922;-64
2022/07/09 10:49:08;;;;;;;;;14.50;12.00;;;;;22.88;49.42;101163.32;110218;1265;23391;-65
2022/07/09 10:51:36;;;;;;;;;11.00;11.00;;;;;22.93;49.11;101163.70;110248;1265;19003;-66
2022/07/09 10:54:03;;;;;;;;;12.33;11.33;;;;;22.89;49.08;101156.52;110228;1265;21414;-64
2022/07/09 10:56:31;;;;;;;;;11.00;10.00;;;;;22.87;49.03;101159.42;110210;1265;19479;-65
2022/07/09 10:58:59;;;;;;;;;12.67;11.00;;;;;22.86;48.80;101155.95;110253;1264;22333;-64
2022/07/09 11:01:26;;;;;;;;;12.00;11.00;;;;;22.87;48.74;101157.72;110262;1265;20329;-64
2022/07/09 11:03:53;;;;;;;;;11.33;11.00;;;;;22.82;48.88;101154.03;110206;1265;20532;-65
2022/07/09 11:06:21;;;;;;;;;10.00;10.00;;;;;22.72;48.91;101152.64;110211;1264;18994;-66
2022/07/09 11:08:48;;;;;;;;;11.00;9.00;;;;;22.74;49.04;101160.79;110183;1265;19534;-64
2022/07/09 11:11:15;;;;;;;;;14.33;11.33;;;;;22.74;49.30;101154.67;110141;1265;19669;-64
2022/07/09 11:13:42;;;;;;;;;19.00;15.33;;;;;22.65;49.88;101160.24;110105;1264;18715;-62
2022/07/09 11:16:10;;;;;;;;;28.00;23.67;;;;;22.59;50.05;101157.08;110197;1264;23051;-62
2022/07/09 11:18:37;;;;;;;;;28.00;23.00;;;;;22.60;50.30;101155.36;110185;1264;19527;-65
2022/07/09 11:21:04;;;;;;;;;22.50;21.00;;;;;22.75;50.08;101158.86;110180;1265;18803;-66
2022/07/09 11:23:31;;;;;;;;;16.00;16.00;;;;;22.80;49.96;101160.64;110241;1264;19119;-62